sensor_id;sensor_type;location;lat;lon;timestamp;P1;durP1;ratioP1;P2;durP2;ratioP2
211;SDS011;16228;48.800;9.002;2022-08-27T00:00:22;34.97;;;28.73;;
211;SDS011;16228;48.800;9.002;2022-08-27T00:02:49;24.63;;;22.20;;
211;SDS011;16228;48.800;9.002;2022-08-27T00:05:17;26.90;;;24.10;;
211;SDS011;16228;48.800;9.002;2022-08-27T00:07:45;31.57;;;27.53;;
211;SDS011;16228;48.800;9.002;2022-08-27T00:10:14;29.10;;;25.27;;
211;SDS011;16228;48.800;9.002;2022-08-27T00:12:46;39.63;;;30.30;;
211;SDS011;16228;48.800;9.002;2022-08-27T00:15:14;27.63;;;24.80;;
211;SDS011;16228;48.800;9.002;2022-08-27T00:17:42;30.27;;;25.87;;
211;SDS011;16228;48.800;9.002;2022-08-27T00:20:12;24.37;;;21.93;;
211;SDS011;16228;48.800;9.002;2022-08-27T00:22:40;32.33;;;28.30;;
211;SDS011;16228;48.800;9.002;2022-08-27T00:25:07;30.87;;;27.30;;
211;SDS011;16228;48.800;9.002;2022-08-27T00:27:35;40.63;;;33.33;;
211;SDS011;16228;48.800;9.002;2022-08-27T00:30:05;31.97;;;28.43;;
211;SDS011;16228;48.800;9.002;2022-08-27T00:32:34;34.57;;;30.37;;
211;SDS011;16228;48.800;9.002;2022-08-27T00:35:01;29.93;;;24.00;;
211;SDS011;16228;48.800;9.002;2022-08-27T00:37:28;27.77;;;24.93;;
211;SDS011;16228;48.800;9.002;2022-08-27T00:39:55;38.97;;;31.23;;
211;SDS011;16228;48.800;9.002;2022-08-27T00:42:22;36.43;;;31.63;;
211;SDS011;16228;48.800;9.002;2022-08-27T00:44:49;37.90;;;31.70;;
211;SDS011;16228;48.800;9.002;2022-08-27T00:47:19;30.77;;;26.00;;
211;SDS011;16228;48.800;9.002;2022-08-27T00:49:50;36.00;;;29.73;;
211;SDS011;16228;48.800;9.002;2022-08-27T00:52:21;33.83;;;28.70;;
211;SDS011;16228;48.800;9.002;2022-08-27T00:54:55;35.20;;;30.40;;
211;SDS011;16228;48.800;9.002;2022-08-27T00:57:31;29.37;;;26.20;;
211;SDS011;16228;48.800;9.002;2022-08-27T01:00:01;29.33;;;24.97;;
211;SDS011;16228;48.800;9.002;2022-08-27T01:02:31;40.47;;;33.00;;
211;SDS011;16228;48.800;9.002;2022-08-27T01:04:59;43.87;;;35.13;;
211;SDS011;16228;48.800;9.002;2022-08-27T01:07:28;41.47;;;32.83;;
211;SDS011;16228;48.800;9.002;2022-08-27T01:09:58;34.33;;;30.63;;
211;SDS011;16228;48.800;9.002;2022-08-27T01:12:28;44.97;;;34.97;;
211;SDS011;16228;48.800;9.002;2022-08-27T01:14:56;41.83;;;31.93;;
211;SDS011;16228;48.800;9.002;2022-08-27T01:17:23;34.50;;;30.80;;
211;SDS011;16228;48.800;9.002;2022-08-27T01:19:53;31.63;;;28.33;;
211;SDS011;16228;48.800;9.002;2022-08-27T01:22:25;32.10;;;28.60;;
211;SDS011;16228;48.800;9.002;2022-08-27T01:25:00;39.03;;;31.77;;
211;SDS011;16228;48.800;9.002;2022-08-27T01:27:31;54.80;;;37.77;;
211;SDS011;16228;48.800;9.002;2022-08-27T01:29:59;33.77;;;29.00;;
211;SDS011;16228;48.800;9.002;2022-08-27T01:32:28;41.50;;;31.87;;
211;SDS011;16228;48.800;9.002;2022-08-27T01:34:57;45.67;;;32.23;;
211;SDS011;16228;48.800;9.002;2022-08-27T01:37:25;41.20;;;34.70;;
211;SDS011;16228;48.800;9.002;2022-08-27T01:39:53;51.63;;;38.10;;
211;SDS011;16228;48.800;9.002;2022-08-27T01:42:24;34.37;;;28.97;;
211;SDS011;16228;48.800;9.002;2022-08-27T01:44:55;34.77;;;30.30;;
211;SDS011;16228;48.800;9.002;2022-08-27T01:47:25;32.07;;;28.57;;
211;SDS011;16228;48.800;9.002;2022-08-27T01:49:53;40.63;;;32.80;;
211;SDS011;16228;48.800;9.002;2022-08-27T01:52:22;41.63;;;35.37;;
211;SDS011;16228;48.800;9.002;2022-08-27T01:54:52;53.10;;;39.23;;
211;SDS011;16228;48.800;9.002;2022-08-27T01:57:19;44.90;;;37.27;;
211;SDS011;16228;48.800;9.002;2022-08-27T01:59:48;34.13;;;28.97;;
211;SDS011;16228;48.800;9.002;2022-08-27T02:02:15;39.40;;;33.70;;
211;SDS011;16228;48.800;9.002;2022-08-27T02:04:43;49.57;;;38.57;;
211;SDS011;16228;48.800;9.002;2022-08-27T02:07:10;50.73;;;38.23;;
211;SDS011;16228;48.800;9.002;2022-08-27T02:09:37;35.67;;;31.73;;
211;SDS011;16228;48.800;9.002;2022-08-27T02:12:04;43.50;;;36.40;;
211;SDS011;16228;48.800;9.002;2022-08-27T02:14:32;41.40;;;34.20;;
211;SDS011;16228;48.800;9.002;2022-08-27T02:17:00;44.40;;;36.20;;
211;SDS011;16228;48.800;9.002;2022-08-27T02:19:28;44.07;;;34.43;;
211;SDS011;16228;48.800;9.002;2022-08-27T02:21:55;43.90;;;34.70;;
211;SDS011;16228;48.800;9.002;2022-08-27T02:24:24;49.97;;;36.40;;
211;SDS011;16228;48.800;9.002;2022-08-27T02:26:52;51.20;;;39.70;;
211;SDS011;16228;48.800;9.002;2022-08-27T02:29:20;47.60;;;38.53;;
211;SDS011;16228;48.800;9.002;2022-08-27T02:31:47;36.97;;;33.10;;
211;SDS011;16228;48.800;9.002;2022-08-27T02:34:16;39.83;;;33.63;;
211;SDS011;16228;48.800;9.002;2022-08-27T02:36:43;42.10;;;35.03;;
211;SDS011;16228;48.800;9.002;2022-08-27T02:39:10;33.03;;;29.60;;
211;SDS011;16228;48.800;9.002;2022-08-27T02:41:37;34.87;;;29.43;;
211;SDS011;16228;48.800;9.002;2022-08-27T02:44:04;32.13;;;28.73;;
211;SDS011;16228;48.800;9.002;2022-08-27T02:46:31;36.83;;;31.07;;
211;SDS011;16228;48.800;9.002;2022-08-27T02:48:58;29.97;;;26.37;;
211;SDS011;16228;48.800;9.002;2022-08-27T02:51:27;29.37;;;26.30;;
211;SDS011;16228;48.800;9.002;2022-08-27T02:53:54;36.63;;;29.50;;
211;SDS011;16228;48.800;9.002;2022-08-27T02:56:20;33.10;;;27.47;;
211;SDS011;16228;48.800;9.002;2022-08-27T02:58:48;28.30;;;25.30;;
211;SDS011;16228;48.800;9.002;2022-08-27T03:01:15;26.20;;;23.43;;
211;SDS011;16228;48.800;9.002;2022-08-27T03:03:42;34.10;;;28.33;;
211;SDS011;16228;48.800;9.002;2022-08-27T03:06:09;30.50;;;26.93;;
211;SDS011;16228;48.800;9.002;2022-08-27T03:08:38;40.60;;;32.30;;
211;SDS011;16228;48.800;9.002;2022-08-27T03:11:05;39.77;;;35.27;;
211;SDS011;16228;48.800;9.002;2022-08-27T03:13:34;48.87;;;42.03;;
211;SDS011;16228;48.800;9.002;2022-08-27T03:16:02;41.87;;;37.27;;
211;SDS011;16228;48.800;9.002;2022-08-27T03:18:30;51.53;;;44.00;;
211;SDS011;16228;48.800;9.002;2022-08-27T03:20:57;62.03;;;51.03;;
211;SDS011;16228;48.800;9.002;2022-08-27T03:23:25;74.67;;;57.23;;
211;SDS011;16228;48.800;9.002;2022-08-27T03:25:59;66.53;;;52.63;;
211;SDS011;16228;48.800;9.002;2022-08-27T03:28:29;99.80;;;66.90;;
211;SDS011;16228;48.800;9.002;2022-08-27T03:31:00;74.50;;;59.13;;
211;SDS011;16228;48.800;9.002;2022-08-27T03:33:29;85.50;;;63.50;;
211;SDS011;16228;48.800;9.002;2022-08-27T03:35:58;69.23;;;55.80;;
211;SDS011;16228;48.800;9.002;2022-08-27T03:38:25;56.77;;;48.17;;
211;SDS011;16228;48.800;9.002;2022-08-27T03:40:52;67.10;;;53.53;;
211;SDS011;16228;48.800;9.002;2022-08-27T03:43:21;59.07;;;49.77;;
211;SDS011;16228;48.800;9.002;2022-08-27T03:45:50;56.07;;;48.10;;
211;SDS011;16228;48.800;9.002;2022-08-27T03:48:18;54.70;;;45.13;;
211;SDS011;16228;48.800;9.002;2022-08-27T03:50:47;69.63;;;55.80;;
211;SDS011;16228;48.800;9.002;2022-08-27T03:53:16;59.17;;;49.77;;
211;SDS011;16228;48.800;9.002;2022-08-27T03:55:44;58.77;;;51.60;;
211;SDS011;16228;48.800;9.002;2022-08-27T03:58:11;74.43;;;55.50;;
211;SDS011;16228;48.800;9.002;2022-08-27T04:00:40;61.03;;;51.10;;
211;SDS011;16228;48.800;9.002;2022-08-27T04:03:10;73.70;;;56.63;;
211;SDS011;16228;48.800;9.002;2022-08-27T04:05:37;72.70;;;55.80;;
211;SDS011;16228;48.800;9.002;2022-08-27T04:08:06;70.80;;;57.57;;
211;SDS011;16228;48.800;9.002;2022-08-27T04:10:33;79.77;;;60.37;;
211;SDS011;16228;48.800;9.002;2022-08-27T04:13:00;75.63;;;55.93;;
211;SDS011;16228;48.800;9.002;2022-08-27T04:15:27;61.20;;;50.27;;
211;SDS011;16228;48.800;9.002;2022-08-27T04:17:55;60.23;;;46.37;;
211;SDS011;16228;48.800;9.002;2022-08-27T04:20:23;65.63;;;50.03;;
211;SDS011;16228;48.800;9.002;2022-08-27T04:22:51;66.10;;;49.03;;
211;SDS011;16228;48.800;9.002;2022-08-27T04:25:18;60.20;;;47.03;;
211;SDS011;16228;48.800;9.002;2022-08-27T04:27:45;49.93;;;41.07;;
211;SDS011;16228;48.800;9.002;2022-08-27T04:30:12;57.97;;;47.67;;
211;SDS011;16228;48.800;9.002;2022-08-27T04:32:41;53.07;;;44.40;;
211;SDS011;16228;48.800;9.002;2022-08-27T04:35:09;92.10;;;57.10;;
211;SDS011;16228;48.800;9.002;2022-08-27T04:37:36;61.33;;;46.00;;
211;SDS011;16228;48.800;9.002;2022-08-27T04:40:05;62.67;;;50.53;;
211;SDS011;16228;48.800;9.002;2022-08-27T04:42:32;59.30;;;47.53;;
211;SDS011;16228;48.800;9.002;2022-08-27T04:44:59;68.80;;;50.77;;
211;SDS011;16228;48.800;9.002;2022-08-27T04:47:27;77.77;;;53.00;;
211;SDS011;16228;48.800;9.002;2022-08-27T04:49:55;64.07;;;48.37;;
211;SDS011;16228;48.800;9.002;2022-08-27T04:52:23;57.53;;;45.33;;
211;SDS011;16228;48.800;9.002;2022-08-27T04:54:51;76.53;;;53.67;;
211;SDS011;16228;48.800;9.002;2022-08-27T04:57:18;81.23;;;55.70;;
211;SDS011;16228;48.800;9.002;2022-08-27T04:59:45;65.30;;;50.40;;
211;SDS011;16228;48.800;9.002;2022-08-27T05:02:12;64.27;;;49.20;;
211;SDS011;16228;48.800;9.002;2022-08-27T05:04:40;65.67;;;48.03;;
211;SDS011;16228;48.800;9.002;2022-08-27T05:07:08;63.70;;;46.50;;
211;SDS011;16228;48.800;9.002;2022-08-27T05:09:37;65.53;;;46.70;;
211;SDS011;16228;48.800;9.002;2022-08-27T05:12:04;60.57;;;47.50;;
211;SDS011;16228;48.800;9.002;2022-08-27T05:14:32;64.87;;;51.93;;
211;SDS011;16228;48.800;9.002;2022-08-27T05:16:59;73.13;;;52.60;;
211;SDS011;16228;48.800;9.002;2022-08-27T05:19:27;58.03;;;45.47;;
211;SDS011;16228;48.800;9.002;2022-08-27T05:21:55;56.47;;;45.77;;
211;SDS011;16228;48.800;9.002;2022-08-27T05:24:22;60.27;;;47.30;;
211;SDS011;16228;48.800;9.002;2022-08-27T05:26:51;71.73;;;52.73;;
211;SDS011;16228;48.800;9.002;2022-08-27T05:29:18;69.40;;;50.17;;
211;SDS011;16228;48.800;9.002;2022-08-27T05:31:46;61.67;;;47.43;;
211;SDS011;16228;48.800;9.002;2022-08-27T05:34:13;72.73;;;54.87;;
211;SDS011;16228;48.800;9.002;2022-08-27T05:36:42;60.97;;;49.97;;
211;SDS011;16228;48.800;9.002;2022-08-27T05:39:11;52.07;;;42.77;;
211;SDS011;16228;48.800;9.002;2022-08-27T05:41:38;55.93;;;47.13;;
211;SDS011;16228;48.800;9.002;2022-08-27T05:44:07;56.73;;;46.43;;
211;SDS011;16228;48.800;9.002;2022-08-27T05:46:36;48.70;;;41.83;;
211;SDS011;16228;48.800;9.002;2022-08-27T05:49:05;57.83;;;49.77;;
211;SDS011;16228;48.800;9.002;2022-08-27T05:51:34;51.03;;;43.57;;
211;SDS011;16228;48.800;9.002;2022-08-27T05:54:03;41.93;;;37.57;;
211;SDS011;16228;48.800;9.002;2022-08-27T05:56:33;67.03;;;49.03;;
211;SDS011;16228;48.800;9.002;2022-08-27T05:59:01;61.07;;;48.40;;
211;SDS011;16228;48.800;9.002;2022-08-27T06:01:49;59.10;;;48.67;;
211;SDS011;16228;48.800;9.002;2022-08-27T06:04:17;42.37;;;37.17;;
211;SDS011;16228;48.800;9.002;2022-08-27T06:06:46;45.13;;;38.53;;
211;SDS011;16228;48.800;9.002;2022-08-27T06:09:15;41.90;;;37.33;;
211;SDS011;16228;48.800;9.002;2022-08-27T06:11:43;45.40;;;39.23;;
211;SDS011;16228;48.800;9.002;2022-08-27T06:14:11;42.37;;;37.87;;
211;SDS011;16228;48.800;9.002;2022-08-27T06:16:39;35.90;;;32.40;;
211;SDS011;16228;48.800;9.002;2022-08-27T06:19:08;41.20;;;36.73;;
211;SDS011;16228;48.800;9.002;2022-08-27T06:21:37;37.17;;;33.33;;
211;SDS011;16228;48.800;9.002;2022-08-27T06:24:04;46.00;;;39.57;;
211;SDS011;16228;48.800;9.002;2022-08-27T06:26:32;58.07;;;45.67;;
211;SDS011;16228;48.800;9.002;2022-08-27T06:29:01;40.17;;;35.77;;
211;SDS011;16228;48.800;9.002;2022-08-27T06:31:29;38.03;;;34.10;;
211;SDS011;16228;48.800;9.002;2022-08-27T06:33:57;41.73;;;35.93;;
211;SDS011;16228;48.800;9.002;2022-08-27T06:36:27;39.63;;;35.40;;
211;SDS011;16228;48.800;9.002;2022-08-27T06:38:56;43.00;;;37.50;;
211;SDS011;16228;48.800;9.002;2022-08-27T06:41:25;37.50;;;33.47;;
211;SDS011;16228;48.800;9.002;2022-08-27T06:43:54;43.87;;;38.03;;
211;SDS011;16228;48.800;9.002;2022-08-27T06:46:23;33.57;;;30.07;;
211;SDS011;16228;48.800;9.002;2022-08-27T06:48:53;37.80;;;33.90;;
211;SDS011;16228;48.800;9.002;2022-08-27T06:51:23;34.50;;;30.83;;
211;SDS011;16228;48.800;9.002;2022-08-27T06:53:53;37.93;;;33.93;;
211;SDS011;16228;48.800;9.002;2022-08-27T06:56:23;42.03;;;37.47;;
211;SDS011;16228;48.800;9.002;2022-08-27T06:58:51;42.13;;;37.17;;
211;SDS011;16228;48.800;9.002;2022-08-27T07:01:20;37.80;;;33.50;;
211;SDS011;16228;48.800;9.002;2022-08-27T07:03:48;34.97;;;31.37;;
211;SDS011;16228;48.800;9.002;2022-08-27T07:06:16;35.67;;;31.73;;
211;SDS011;16228;48.800;9.002;2022-08-27T07:08:43;36.93;;;32.87;;
211;SDS011;16228;48.800;9.002;2022-08-27T07:11:12;37.37;;;33.40;;
211;SDS011;16228;48.800;9.002;2022-08-27T07:13:41;30.97;;;27.87;;
211;SDS011;16228;48.800;9.002;2022-08-27T07:16:12;40.80;;;36.20;;
211;SDS011;16228;48.800;9.002;2022-08-27T07:18:41;41.23;;;35.07;;
211;SDS011;16228;48.800;9.002;2022-08-27T07:21:08;39.67;;;35.37;;
211;SDS011;16228;48.800;9.002;2022-08-27T07:23:36;33.13;;;29.57;;
211;SDS011;16228;48.800;9.002;2022-08-27T07:26:05;34.00;;;30.50;;
211;SDS011;16228;48.800;9.002;2022-08-27T07:28:35;31.63;;;28.40;;
211;SDS011;16228;48.800;9.002;2022-08-27T07:31:03;39.43;;;35.40;;
211;SDS011;16228;48.800;9.002;2022-08-27T07:33:33;35.43;;;31.73;;
211;SDS011;16228;48.800;9.002;2022-08-27T07:36:00;38.10;;;33.80;;
211;SDS011;16228;48.800;9.002;2022-08-27T07:38:28;34.87;;;31.33;;
211;SDS011;16228;48.800;9.002;2022-08-27T07:40:55;45.27;;;38.67;;
211;SDS011;16228;48.800;9.002;2022-08-27T07:43:23;40.17;;;35.93;;
211;SDS011;16228;48.800;9.002;2022-08-27T07:46:09;29.60;;;26.57;;
211;SDS011;16228;48.800;9.002;2022-08-27T07:48:37;31.60;;;28.50;;
211;SDS011;16228;48.800;9.002;2022-08-27T07:51:04;36.53;;;32.87;;
211;SDS011;16228;48.800;9.002;2022-08-27T07:53:38;40.07;;;33.90;;
211;SDS011;16228;48.800;9.002;2022-08-27T07:56:06;35.90;;;32.23;;
211;SDS011;16228;48.800;9.002;2022-08-27T07:58:34;34.20;;;30.60;;
211;SDS011;16228;48.800;9.002;2022-08-27T08:01:01;36.33;;;32.37;;
211;SDS011;16228;48.800;9.002;2022-08-27T08:03:30;38.10;;;34.37;;
211;SDS011;16228;48.800;9.002;2022-08-27T08:06:01;43.03;;;37.47;;
211;SDS011;16228;48.800;9.002;2022-08-27T08:08:30;40.33;;;36.10;;
211;SDS011;16228;48.800;9.002;2022-08-27T08:10:58;39.07;;;34.43;;
211;SDS011;16228;48.800;9.002;2022-08-27T08:13:27;31.90;;;28.40;;
211;SDS011;16228;48.800;9.002;2022-08-27T08:15:55;39.63;;;34.67;;
211;SDS011;16228;48.800;9.002;2022-08-27T08:18:23;34.10;;;30.40;;
211;SDS011;16228;48.800;9.002;2022-08-27T08:20:57;35.07;;;31.60;;
211;SDS011;16228;48.800;9.002;2022-08-27T08:23:25;33.10;;;29.63;;
211;SDS011;16228;48.800;9.002;2022-08-27T08:25:53;30.47;;;27.00;;
211;SDS011;16228;48.800;9.002;2022-08-27T08:28:21;32.40;;;28.53;;
211;SDS011;16228;48.800;9.002;2022-08-27T08:30:49;28.30;;;25.43;;
211;SDS011;16228;48.800;9.002;2022-08-27T08:33:17;36.97;;;30.73;;
211;SDS011;16228;48.800;9.002;2022-08-27T08:35:44;33.87;;;30.23;;
211;SDS011;16228;48.800;9.002;2022-08-27T08:38:15;39.27;;;34.97;;
211;SDS011;16228;48.800;9.002;2022-08-27T08:40:43;32.47;;;29.03;;
211;SDS011;16228;48.800;9.002;2022-08-27T08:43:19;34.47;;;30.90;;
211;SDS011;16228;48.800;9.002;2022-08-27T08:45:53;43.00;;;36.67;;
211;SDS011;16228;48.800;9.002;2022-08-27T08:48:21;34.93;;;31.00;;
211;SDS011;16228;48.800;9.002;2022-08-27T08:50:52;32.50;;;29.17;;
211;SDS011;16228;48.800;9.002;2022-08-27T08:53:26;37.70;;;33.83;;
211;SDS011;16228;48.800;9.002;2022-08-27T08:56:07;34.73;;;31.03;;
211;SDS011;16228;48.800;9.002;2022-08-27T08:58:38;35.83;;;31.10;;
211;SDS011;16228;48.800;9.002;2022-08-27T09:01:10;30.40;;;27.03;;
211;SDS011;16228;48.800;9.002;2022-08-27T09:03:41;28.37;;;25.47;;
211;SDS011;16228;48.800;9.002;2022-08-27T09:06:15;41.97;;;36.93;;
211;SDS011;16228;48.800;9.002;2022-08-27T09:08:47;33.33;;;30.27;;
211;SDS011;16228;48.800;9.002;2022-08-27T09:11:17;34.57;;;30.80;;
211;SDS011;16228;48.800;9.002;2022-08-27T09:13:56;29.10;;;26.00;;
211;SDS011;16228;48.800;9.002;2022-08-27T09:16:26;34.30;;;30.70;;
211;SDS011;16228;48.800;9.002;2022-08-27T09:18:54;27.47;;;24.73;;
211;SDS011;16228;48.800;9.002;2022-08-27T09:21:26;33.83;;;30.13;;
211;SDS011;16228;48.800;9.002;2022-08-27T09:24:03;35.27;;;31.67;;
211;SDS011;16228;48.800;9.002;2022-08-27T09:26:34;39.33;;;31.83;;
211;SDS011;16228;48.800;9.002;2022-08-27T09:29:04;29.37;;;26.20;;
211;SDS011;16228;48.800;9.002;2022-08-27T09:31:48;26.10;;;23.47;;
211;SDS011;16228;48.800;9.002;2022-08-27T09:34:20;26.87;;;24.07;;
211;SDS011;16228;48.800;9.002;2022-08-27T09:36:50;34.17;;;28.70;;
211;SDS011;16228;48.800;9.002;2022-08-27T09:39:42;28.97;;;25.87;;
211;SDS011;16228;48.800;9.002;2022-08-27T09:42:26;26.97;;;24.40;;
211;SDS011;16228;48.800;9.002;2022-08-27T09:44:56;35.27;;;31.40;;
211;SDS011;16228;48.800;9.002;2022-08-27T09:47:24;28.30;;;25.30;;
211;SDS011;16228;48.800;9.002;2022-08-27T09:50:03;27.70;;;24.23;;
211;SDS011;16228;48.800;9.002;2022-08-27T09:52:35;35.03;;;28.53;;
211;SDS011;16228;48.800;9.002;2022-08-27T09:55:14;24.90;;;22.30;;
211;SDS011;16228;48.800;9.002;2022-08-27T09:57:52;26.63;;;23.93;;
211;SDS011;16228;48.800;9.002;2022-08-27T10:00:24;31.43;;;25.90;;
211;SDS011;16228;48.800;9.002;2022-08-27T10:02:58;23.13;;;20.77;;
211;SDS011;16228;48.800;9.002;2022-08-27T10:05:28;18.20;;;16.30;;
211;SDS011;16228;48.800;9.002;2022-08-27T10:07:58;21.13;;;18.27;;
211;SDS011;16228;48.800;9.002;2022-08-27T10:10:34;16.07;;;14.57;;
211;SDS011;16228;48.800;9.002;2022-08-27T10:13:05;18.47;;;16.70;;
211;SDS011;16228;48.800;9.002;2022-08-27T10:15:37;21.37;;;19.10;;
211;SDS011;16228;48.800;9.002;2022-08-27T10:18:14;19.97;;;18.07;;
211;SDS011;16228;48.800;9.002;2022-08-27T10:20:50;16.07;;;14.73;;
211;SDS011;16228;48.800;9.002;2022-08-27T10:23:30;17.00;;;15.33;;
211;SDS011;16228;48.800;9.002;2022-08-27T10:26:08;17.70;;;16.10;;
211;SDS011;16228;48.800;9.002;2022-08-27T10:28:43;13.77;;;12.57;;
211;SDS011;16228;48.800;9.002;2022-08-27T10:31:26;18.17;;;16.57;;
211;SDS011;16228;48.800;9.002;2022-08-27T10:34:02;18.87;;;17.17;;
211;SDS011;16228;48.800;9.002;2022-08-27T10:36:44;19.83;;;18.13;;
211;SDS011;16228;48.800;9.002;2022-08-27T10:39:22;21.57;;;19.47;;
211;SDS011;16228;48.800;9.002;2022-08-27T10:42:04;21.33;;;19.30;;
211;SDS011;16228;48.800;9.002;2022-08-27T10:44:50;21.70;;;19.80;;
211;SDS011;16228;48.800;9.002;2022-08-27T10:47:29;20.33;;;18.53;;
211;SDS011;16228;48.800;9.002;2022-08-27T10:50:14;24.70;;;22.40;;
211;SDS011;16228;48.800;9.002;2022-08-27T10:52:53;19.33;;;17.43;;
211;SDS011;16228;48.800;9.002;2022-08-27T10:55:26;15.87;;;14.27;;
211;SDS011;16228;48.800;9.002;2022-08-27T11:01:00;18.17;;;16.57;;
211;SDS011;16228;48.800;9.002;2022-08-27T11:03:33;16.50;;;14.97;;
211;SDS011;16228;48.800;9.002;2022-08-27T11:06:09;19.53;;;17.63;;
211;SDS011;16228;48.800;9.002;2022-08-27T11:08:41;14.20;;;12.80;;
211;SDS011;16228;48.800;9.002;2022-08-27T11:11:16;17.97;;;16.27;;
211;SDS011;16228;48.800;9.002;2022-08-27T11:13:51;16.87;;;15.27;;
211;SDS011;16228;48.800;9.002;2022-08-27T11:16:24;17.50;;;15.80;;
211;SDS011;16228;48.800;9.002;2022-08-27T11:18:55;15.67;;;14.17;;
211;SDS011;16228;48.800;9.002;2022-08-27T11:21:28;15.53;;;14.03;;
211;SDS011;16228;48.800;9.002;2022-08-27T11:24:06;20.97;;;19.03;;
211;SDS011;16228;48.800;9.002;2022-08-27T11:26:41;15.47;;;14.10;;
211;SDS011;16228;48.800;9.002;2022-08-27T11:29:12;16.93;;;15.53;;
211;SDS011;16228;48.800;9.002;2022-08-27T11:31:49;20.50;;;18.40;;
211;SDS011;16228;48.800;9.002;2022-08-27T11:34:23;19.67;;;17.67;;
211;SDS011;16228;48.800;9.002;2022-08-27T11:37:00;19.07;;;17.17;;
211;SDS011;16228;48.800;9.002;2022-08-27T11:39:43;19.67;;;17.77;;
211;SDS011;16228;48.800;9.002;2022-08-27T11:42:20;24.30;;;22.03;;
211;SDS011;16228;48.800;9.002;2022-08-27T11:44:57;22.80;;;20.50;;
211;SDS011;16228;48.800;9.002;2022-08-27T11:47:32;21.87;;;19.87;;
211;SDS011;16228;48.800;9.002;2022-08-27T11:50:00;19.00;;;17.23;;
211;SDS011;16228;48.800;9.002;2022-08-27T11:52:34;23.27;;;20.77;;
211;SDS011;16228;48.800;9.002;2022-08-27T11:55:12;24.50;;;21.90;;
211;SDS011;16228;48.800;9.002;2022-08-27T11:57:50;29.13;;;24.87;;
211;SDS011;16228;48.800;9.002;2022-08-27T12:00:30;20.47;;;18.57;;
211;SDS011;16228;48.800;9.002;2022-08-27T12:03:01;26.53;;;23.93;;
211;SDS011;16228;48.800;9.002;2022-08-27T12:05:35;24.10;;;21.80;;
211;SDS011;16228;48.800;9.002;2022-08-27T12:08:13;22.47;;;20.30;;
211;SDS011;16228;48.800;9.002;2022-08-27T12:10:52;25.53;;;23.23;;
211;SDS011;16228;48.800;9.002;2022-08-27T12:13:31;23.00;;;20.77;;
211;SDS011;16228;48.800;9.002;2022-08-27T12:16:06;27.37;;;24.67;;
211;SDS011;16228;48.800;9.002;2022-08-27T12:18:45;25.03;;;22.50;;
211;SDS011;16228;48.800;9.002;2022-08-27T12:21:25;20.07;;;18.17;;
211;SDS011;16228;48.800;9.002;2022-08-27T12:24:08;23.70;;;21.50;;
211;SDS011;16228;48.800;9.002;2022-08-27T12:26:56;19.80;;;17.87;;
211;SDS011;16228;48.800;9.002;2022-08-27T12:29:26;23.20;;;20.80;;
211;SDS011;16228;48.800;9.002;2022-08-27T12:32:01;24.97;;;22.53;;
211;SDS011;16228;48.800;9.002;2022-08-27T12:34:42;26.77;;;24.13;;
211;SDS011;16228;48.800;9.002;2022-08-27T12:37:12;26.37;;;23.60;;
211;SDS011;16228;48.800;9.002;2022-08-27T12:39:41;28.53;;;25.53;;
211;SDS011;16228;48.800;9.002;2022-08-27T12:42:14;33.27;;;29.90;;
211;SDS011;16228;48.800;9.002;2022-08-27T12:44:45;24.57;;;21.93;;
211;SDS011;16228;48.800;9.002;2022-08-27T12:47:12;34.47;;;30.87;;
211;SDS011;16228;48.800;9.002;2022-08-27T12:49:44;28.17;;;25.40;;
211;SDS011;16228;48.800;9.002;2022-08-27T12:52:18;26.97;;;23.73;;
211;SDS011;16228;48.800;9.002;2022-08-27T12:54:57;33.37;;;29.83;;
211;SDS011;16228;48.800;9.002;2022-08-27T12:57:34;25.47;;;23.13;;
211;SDS011;16228;48.800;9.002;2022-08-27T13:00:10;28.73;;;25.80;;
211;SDS011;16228;48.800;9.002;2022-08-27T13:02:54;22.50;;;20.57;;
211;SDS011;16228;48.800;9.002;2022-08-27T13:05:39;26.03;;;23.73;;
211;SDS011;16228;48.800;9.002;2022-08-27T13:08:16;25.97;;;23.47;;
211;SDS011;16228;48.800;9.002;2022-08-27T13:10:45;28.23;;;25.60;;
211;SDS011;16228;48.800;9.002;2022-08-27T13:13:14;27.23;;;24.73;;
211;SDS011;16228;48.800;9.002;2022-08-27T13:15:42;22.23;;;20.27;;
211;SDS011;16228;48.800;9.002;2022-08-27T13:18:13;25.83;;;23.60;;
211;SDS011;16228;48.800;9.002;2022-08-27T13:20:42;25.10;;;22.83;;
211;SDS011;16228;48.800;9.002;2022-08-27T13:23:14;22.57;;;20.47;;
211;SDS011;16228;48.800;9.002;2022-08-27T13:25:52;25.93;;;23.27;;
211;SDS011;16228;48.800;9.002;2022-08-27T13:28:24;24.00;;;21.90;;
211;SDS011;16228;48.800;9.002;2022-08-27T13:30:54;25.57;;;23.27;;
211;SDS011;16228;48.800;9.002;2022-08-27T13:33:24;28.57;;;25.67;;
211;SDS011;16228;48.800;9.002;2022-08-27T13:35:54;27.33;;;24.77;;
211;SDS011;16228;48.800;9.002;2022-08-27T13:38:26;22.07;;;19.73;;
211;SDS011;16228;48.800;9.002;2022-08-27T13:40:56;24.00;;;21.80;;
211;SDS011;16228;48.800;9.002;2022-08-27T13:43:30;21.30;;;19.40;;
211;SDS011;16228;48.800;9.002;2022-08-27T13:46:01;18.40;;;16.63;;
211;SDS011;16228;48.800;9.002;2022-08-27T13:48:31;24.10;;;21.87;;
211;SDS011;16228;48.800;9.002;2022-08-27T13:51:00;25.43;;;23.03;;
211;SDS011;16228;48.800;9.002;2022-08-27T13:53:31;28.53;;;25.90;;
211;SDS011;16228;48.800;9.002;2022-08-27T13:56:25;23.90;;;21.57;;
211;SDS011;16228;48.800;9.002;2022-08-27T13:58:54;21.70;;;19.60;;
211;SDS011;16228;48.800;9.002;2022-08-27T14:01:32;26.80;;;24.33;;
211;SDS011;16228;48.800;9.002;2022-08-27T14:04:00;28.90;;;26.00;;
211;SDS011;16228;48.800;9.002;2022-08-27T14:06:32;25.00;;;22.53;;
211;SDS011;16228;48.800;9.002;2022-08-27T14:09:09;21.70;;;19.80;;
211;SDS011;16228;48.800;9.002;2022-08-27T14:11:41;28.83;;;26.03;;
211;SDS011;16228;48.800;9.002;2022-08-27T14:14:09;27.83;;;24.93;;
211;SDS011;16228;48.800;9.002;2022-08-27T14:16:37;22.87;;;20.53;;
211;SDS011;16228;48.800;9.002;2022-08-27T14:19:06;25.27;;;22.77;;
211;SDS011;16228;48.800;9.002;2022-08-27T14:21:37;21.57;;;19.57;;
211;SDS011;16228;48.800;9.002;2022-08-27T14:24:06;24.57;;;22.13;;
211;SDS011;16228;48.800;9.002;2022-08-27T14:26:33;23.10;;;21.00;;
211;SDS011;16228;48.800;9.002;2022-08-27T14:29:01;25.27;;;23.07;;
211;SDS011;16228;48.800;9.002;2022-08-27T14:31:29;24.67;;;22.33;;
211;SDS011;16228;48.800;9.002;2022-08-27T14:33:56;29.53;;;26.63;;
211;SDS011;16228;48.800;9.002;2022-08-27T14:36:23;20.83;;;19.03;;
211;SDS011;16228;48.800;9.002;2022-08-27T14:38:54;26.80;;;24.30;;
211;SDS011;16228;48.800;9.002;2022-08-27T14:41:21;23.67;;;21.57;;
211;SDS011;16228;48.800;9.002;2022-08-27T14:43:49;22.00;;;20.00;;
211;SDS011;16228;48.800;9.002;2022-08-27T14:46:18;26.87;;;24.13;;
211;SDS011;16228;48.800;9.002;2022-08-27T14:48:49;23.37;;;20.97;;
211;SDS011;16228;48.800;9.002;2022-08-27T14:51:19;25.43;;;23.00;;
211;SDS011;16228;48.800;9.002;2022-08-27T14:53:50;25.17;;;22.77;;
211;SDS011;16228;48.800;9.002;2022-08-27T14:56:20;21.10;;;18.90;;
211;SDS011;16228;48.800;9.002;2022-08-27T14:58:49;25.67;;;23.37;;
211;SDS011;16228;48.800;9.002;2022-08-27T15:01:17;20.20;;;18.30;;
211;SDS011;16228;48.800;9.002;2022-08-27T15:03:49;24.93;;;22.67;;
211;SDS011;16228;48.800;9.002;2022-08-27T15:06:18;25.30;;;22.80;;
211;SDS011;16228;48.800;9.002;2022-08-27T15:08:46;30.33;;;27.40;;
211;SDS011;16228;48.800;9.002;2022-08-27T15:11:15;22.33;;;20.23;;